sensor_id;sensor_type;location;lat;lon;timestamp;P1;durP1;ratioP1;P2;durP2;ratioP2
22525;SDS011;11429;50.842;4.386;2023-02-28T00:01:22;8.88;;;5.20;;
22525;SDS011;11429;50.842;4.386;2023-02-28T00:03:48;9.82;;;5.18;;
22525;SDS011;11429;50.842;4.386;2023-02-28T00:06:14;9.45;;;5.88;;
22525;SDS011;11429;50.842;4.386;2023-02-28T00:08:40;8.25;;;5.35;;
22525;SDS011;11429;50.842;4.386;2023-02-28T00:11:07;9.63;;;5.45;;
22525;SDS011;11429;50.842;4.386;2023-02-28T00:13:35;9.70;;;5.53;;
22525;SDS011;11429;50.842;4.386;2023-02-28T00:16:07;10.40;;;5.35;;
22525;SDS011;11429;50.842;4.386;2023-02-28T00:18:35;9.95;;;5.72;;
22525;SDS011;11429;50.842;4.386;2023-02-28T00:21:01;10.32;;;5.88;;
22525;SDS011;11429;50.842;4.386;2023-02-28T00:23:27;10.68;;;5.47;;
22525;SDS011;11429;50.842;4.386;2023-02-28T00:25:53;9.00;;;5.50;;
22525;SDS011;11429;50.842;4.386;2023-02-28T00:28:19;9.70;;;5.20;;
22525;SDS011;11429;50.842;4.386;2023-02-28T00:30:45;7.18;;;4.97;;
22525;SDS011;11429;50.842;4.386;2023-02-28T00:33:11;10.90;;;4.93;;
22525;SDS011;11429;50.842;4.386;2023-02-28T00:35:37;11.15;;;5.28;;
22525;SDS011;11429;50.842;4.386;2023-02-28T00:38:02;11.15;;;5.32;;
22525;SDS011;11429;50.842;4.386;2023-02-28T00:40:28;9.65;;;5.72;;
22525;SDS011;11429;50.842;4.386;2023-02-28T00:42:54;11.20;;;5.75;;
22525;SDS011;11429;50.842;4.386;2023-02-28T00:45:20;9.05;;;6.10;;
22525;SDS011;11429;50.842;4.386;2023-02-28T00:47:45;8.85;;;6.07;;
22525;SDS011;11429;50.842;4.386;2023-02-28T00:50:15;11.95;;;6.78;;
22525;SDS011;11429;50.842;4.386;2023-02-28T00:52:45;10.48;;;6.88;;
22525;SDS011;11429;50.842;4.386;2023-02-28T00:55:11;11.05;;;6.55;;
22525;SDS011;11429;50.842;4.386;2023-02-28T00:57:36;11.18;;;6.40;;
22525;SDS011;11429;50.842;4.386;2023-02-28T01:00:02;9.77;;;6.65;;
22525;SDS011;11429;50.842;4.386;2023-02-28T01:02:29;8.30;;;6.20;;
22525;SDS011;11429;50.842;4.386;2023-02-28T01:04:55;9.95;;;6.05;;
22525;SDS011;11429;50.842;4.386;2023-02-28T01:07:22;9.95;;;6.28;;
22525;SDS011;11429;50.842;4.386;2023-02-28T01:09:48;7.43;;;5.53;;
22525;SDS011;11429;50.842;4.386;2023-02-28T01:12:14;8.25;;;5.80;;
22525;SDS011;11429;50.842;4.386;2023-02-28T01:14:40;10.02;;;5.97;;
22525;SDS011;11429;50.842;4.386;2023-02-28T01:17:06;13.50;;;6.10;;
22525;SDS011;11429;50.842;4.386;2023-02-28T01:19:32;11.60;;;5.70;;
22525;SDS011;11429;50.842;4.386;2023-02-28T01:22:00;11.15;;;6.38;;
22525;SDS011;11429;50.842;4.386;2023-02-28T01:24:27;12.90;;;5.90;;
22525;SDS011;11429;50.842;4.386;2023-02-28T01:26:53;8.90;;;5.68;;
22525;SDS011;11429;50.842;4.386;2023-02-28T01:29:19;8.90;;;5.47;;
22525;SDS011;11429;50.842;4.386;2023-02-28T01:31:47;10.00;;;6.28;;
22525;SDS011;11429;50.842;4.386;2023-02-28T01:34:13;11.00;;;5.93;;
22525;SDS011;11429;50.842;4.386;2023-02-28T01:36:38;11.60;;;6.15;;
22525;SDS011;11429;50.842;4.386;2023-02-28T01:39:04;8.77;;;6.05;;
22525;SDS011;11429;50.842;4.386;2023-02-28T01:41:31;10.15;;;6.15;;
22525;SDS011;11429;50.842;4.386;2023-02-28T01:43:59;10.10;;;5.80;;
22525;SDS011;11429;50.842;4.386;2023-02-28T01:46:33;8.80;;;5.65;;
22525;SDS011;11429;50.842;4.386;2023-02-28T01:49:02;12.48;;;7.28;;
22525;SDS011;11429;50.842;4.386;2023-02-28T01:54:18;7.57;;;5.85;;
22525;SDS011;11429;50.842;4.386;2023-02-28T01:56:48;10.45;;;6.60;;
22525;SDS011;11429;50.842;4.386;2023-02-28T01:59:40;8.38;;;6.40;;
22525;SDS011;11429;50.842;4.386;2023-02-28T02:02:16;8.73;;;6.93;;
22525;SDS011;11429;50.842;4.386;2023-02-28T02:04:47;11.25;;;7.10;;
22525;SDS011;11429;50.842;4.386;2023-02-28T02:07:18;11.15;;;7.05;;
22525;SDS011;11429;50.842;4.386;2023-02-28T02:09:44;9.65;;;7.25;;
22525;SDS011;11429;50.842;4.386;2023-02-28T02:12:27;9.98;;;7.28;;
22525;SDS011;11429;50.842;4.386;2023-02-28T02:17:39;10.77;;;7.13;;
22525;SDS011;11429;50.842;4.386;2023-02-28T02:25:56;13.27;;;7.43;;
22525;SDS011;11429;50.842;4.386;2023-02-28T02:37:32;11.77;;;7.20;;
22525;SDS011;11429;50.842;4.386;2023-02-28T02:40:14;13.20;;;7.15;;
22525;SDS011;11429;50.842;4.386;2023-02-28T02:48:13;14.50;;;7.80;;
22525;SDS011;11429;50.842;4.386;2023-02-28T02:50:48;10.75;;;7.78;;
22525;SDS011;11429;50.842;4.386;2023-02-28T02:53:17;10.73;;;7.70;;
22525;SDS011;11429;50.842;4.386;2023-02-28T02:55:47;12.20;;;8.10;;
22525;SDS011;11429;50.842;4.386;2023-02-28T02:58:20;10.57;;;7.93;;
22525;SDS011;11429;50.842;4.386;2023-02-28T03:00:51;12.82;;;8.55;;
22525;SDS011;11429;50.842;4.386;2023-02-28T03:03:19;15.43;;;8.45;;
22525;SDS011;11429;50.842;4.386;2023-02-28T03:05:54;12.68;;;8.35;;
22525;SDS011;11429;50.842;4.386;2023-02-28T03:08:21;13.23;;;8.27;;
22525;SDS011;11429;50.842;4.386;2023-02-28T03:10:48;12.10;;;8.02;;
22525;SDS011;11429;50.842;4.386;2023-02-28T03:18:36;12.18;;;8.15;;
22525;SDS011;11429;50.842;4.386;2023-02-28T03:21:06;13.60;;;8.70;;
22525;SDS011;11429;50.842;4.386;2023-02-28T03:24:53;13.57;;;8.73;;
22525;SDS011;11429;50.842;4.386;2023-02-28T03:27:09;12.70;;;8.88;;
22525;SDS011;11429;50.842;4.386;2023-02-28T03:29:42;14.85;;;9.00;;
22525;SDS011;11429;50.842;4.386;2023-02-28T03:32:21;13.45;;;8.63;;
22525;SDS011;11429;50.842;4.386;2023-02-28T03:35:07;11.75;;;8.27;;
22525;SDS011;11429;50.842;4.386;2023-02-28T03:37:35;13.35;;;9.10;;
22525;SDS011;11429;50.842;4.386;2023-02-28T03:40:06;14.30;;;9.32;;
22525;SDS011;11429;50.842;4.386;2023-02-28T03:42:39;16.48;;;8.80;;
22525;SDS011;11429;50.842;4.386;2023-02-28T03:45:11;15.73;;;8.65;;
22525;SDS011;11429;50.842;4.386;2023-02-28T03:47:44;12.60;;;8.73;;
22525;SDS011;11429;50.842;4.386;2023-02-28T03:50:18;14.73;;;8.65;;
22525;SDS011;11429;50.842;4.386;2023-02-28T03:52:49;12.95;;;9.52;;
22525;SDS011;11429;50.842;4.386;2023-02-28T03:55:26;13.32;;;9.38;;
22525;SDS011;11429;50.842;4.386;2023-02-28T03:58:21;14.10;;;9.35;;
22525;SDS011;11429;50.842;4.386;2023-02-28T04:00:45;12.65;;;8.75;;
22525;SDS011;11429;50.842;4.386;2023-02-28T04:03:14;13.85;;;9.80;;
22525;SDS011;11429;50.842;4.386;2023-02-28T04:05:47;12.00;;;8.73;;
22525;SDS011;11429;50.842;4.386;2023-02-28T04:08:18;13.75;;;9.60;;
22525;SDS011;11429;50.842;4.386;2023-02-28T04:10:45;13.75;;;9.68;;
22525;SDS011;11429;50.842;4.386;2023-02-28T04:13:19;17.05;;;9.68;;
22525;SDS011;11429;50.842;4.386;2023-02-28T04:15:45;13.13;;;9.25;;
22525;SDS011;11429;50.842;4.386;2023-02-28T04:18:11;13.65;;;9.05;;
22525;SDS011;11429;50.842;4.386;2023-02-28T04:20:36;12.27;;;9.27;;
22525;SDS011;11429;50.842;4.386;2023-02-28T04:23:02;14.98;;;10.00;;
22525;SDS011;11429;50.842;4.386;2023-02-28T04:25:28;12.80;;;9.30;;
22525;SDS011;11429;50.842;4.386;2023-02-28T04:27:53;15.10;;;9.80;;
22525;SDS011;11429;50.842;4.386;2023-02-28T04:30:19;15.27;;;9.93;;
22525;SDS011;11429;50.842;4.386;2023-02-28T04:32:45;17.73;;;9.95;;
22525;SDS011;11429;50.842;4.386;2023-02-28T04:35:10;16.73;;;9.73;;
22525;SDS011;11429;50.842;4.386;2023-02-28T04:37:36;16.65;;;9.43;;
22525;SDS011;11429;50.842;4.386;2023-02-28T04:40:02;14.88;;;9.70;;
22525;SDS011;11429;50.842;4.386;2023-02-28T04:42:29;19.23;;;10.30;;
22525;SDS011;11429;50.842;4.386;2023-02-28T04:45:01;12.43;;;9.85;;
22525;SDS011;11429;50.842;4.386;2023-02-28T04:47:28;15.18;;;9.88;;
22525;SDS011;11429;50.842;4.386;2023-02-28T04:49:53;14.63;;;10.10;;
22525;SDS011;11429;50.842;4.386;2023-02-28T04:52:19;14.90;;;9.73;;
22525;SDS011;11429;50.842;4.386;2023-02-28T04:54:45;12.00;;;9.57;;
22525;SDS011;11429;50.842;4.386;2023-02-28T04:57:10;12.23;;;10.00;;
22525;SDS011;11429;50.842;4.386;2023-02-28T04:59:36;13.52;;;9.48;;
22525;SDS011;11429;50.842;4.386;2023-02-28T05:02:02;17.17;;;10.15;;
22525;SDS011;11429;50.842;4.386;2023-02-28T05:04:32;14.43;;;10.18;;
22525;SDS011;11429;50.842;4.386;2023-02-28T05:06:59;14.63;;;10.63;;
22525;SDS011;11429;50.842;4.386;2023-02-28T05:09:25;15.05;;;10.48;;
22525;SDS011;11429;50.842;4.386;2023-02-28T05:11:52;15.15;;;10.40;;
22525;SDS011;11429;50.842;4.386;2023-02-28T05:14:17;12.65;;;9.68;;
22525;SDS011;11429;50.842;4.386;2023-02-28T05:16:43;16.48;;;10.65;;
22525;SDS011;11429;50.842;4.386;2023-02-28T05:19:09;15.52;;;10.50;;
22525;SDS011;11429;50.842;4.386;2023-02-28T05:21:35;18.90;;;10.70;;
22525;SDS011;11429;50.842;4.386;2023-02-28T05:24:21;15.35;;;9.70;;
22525;SDS011;11429;50.842;4.386;2023-02-28T05:26:50;14.20;;;10.15;;
22525;SDS011;11429;50.842;4.386;2023-02-28T05:29:17;15.23;;;10.63;;
22525;SDS011;11429;50.842;4.386;2023-02-28T05:31:44;15.02;;;10.70;;
22525;SDS011;11429;50.842;4.386;2023-02-28T05:34:09;17.33;;;10.18;;
22525;SDS011;11429;50.842;4.386;2023-02-28T05:36:37;16.88;;;9.45;;
22525;SDS011;11429;50.842;4.386;2023-02-28T05:39:04;14.55;;;11.05;;
22525;SDS011;11429;50.842;4.386;2023-02-28T05:41:30;13.80;;;10.80;;
22525;SDS011;11429;50.842;4.386;2023-02-28T05:43:57;16.05;;;10.50;;
22525;SDS011;11429;50.842;4.386;2023-02-28T05:46:23;18.55;;;9.88;;
22525;SDS011;11429;50.842;4.386;2023-02-28T05:48:48;14.13;;;9.63;;
22525;SDS011;11429;50.842;4.386;2023-02-28T05:51:16;16.83;;;10.70;;
22525;SDS011;11429;50.842;4.386;2023-02-28T05:53:42;19.48;;;10.43;;
22525;SDS011;11429;50.842;4.386;2023-02-28T05:56:07;14.40;;;9.75;;
22525;SDS011;11429;50.842;4.386;2023-02-28T05:58:33;16.65;;;11.00;;
22525;SDS011;11429;50.842;4.386;2023-02-28T06:00:59;16.35;;;9.43;;
22525;SDS011;11429;50.842;4.386;2023-02-28T06:03:44;15.57;;;9.73;;
22525;SDS011;11429;50.842;4.386;2023-02-28T06:06:09;13.52;;;9.38;;
22525;SDS011;11429;50.842;4.386;2023-02-28T06:08:35;14.23;;;9.88;;
22525;SDS011;11429;50.842;4.386;2023-02-28T06:11:02;14.63;;;9.90;;
22525;SDS011;11429;50.842;4.386;2023-02-28T06:13:29;18.77;;;10.48;;
22525;SDS011;11429;50.842;4.386;2023-02-28T06:15:54;16.00;;;10.20;;
22525;SDS011;11429;50.842;4.386;2023-02-28T06:18:20;14.73;;;9.32;;
22525;SDS011;11429;50.842;4.386;2023-02-28T06:20:52;17.20;;;10.93;;
22525;SDS011;11429;50.842;4.386;2023-02-28T06:23:21;17.83;;;9.25;;
22525;SDS011;11429;50.842;4.386;2023-02-28T06:25:47;18.27;;;9.38;;
22525;SDS011;11429;50.842;4.386;2023-02-28T06:28:14;14.65;;;9.68;;
22525;SDS011;11429;50.842;4.386;2023-02-28T06:30:40;18.00;;;9.93;;
22525;SDS011;11429;50.842;4.386;2023-02-28T06:33:05;15.45;;;9.98;;
22525;SDS011;11429;50.842;4.386;2023-02-28T06:35:31;15.38;;;9.80;;
22525;SDS011;11429;50.842;4.386;2023-02-28T06:37:57;13.45;;;10.40;;
22525;SDS011;11429;50.842;4.386;2023-02-28T06:40:23;14.50;;;9.55;;
22525;SDS011;11429;50.842;4.386;2023-02-28T06:42:49;15.10;;;10.05;;
22525;SDS011;11429;50.842;4.386;2023-02-28T06:45:14;15.32;;;9.82;;
22525;SDS011;11429;50.842;4.386;2023-02-28T06:47:40;14.23;;;9.45;;
22525;SDS011;11429;50.842;4.386;2023-02-28T06:50:08;15.25;;;9.48;;
22525;SDS011;11429;50.842;4.386;2023-02-28T06:52:35;14.15;;;10.00;;
22525;SDS011;11429;50.842;4.386;2023-02-28T06:55:03;16.42;;;10.57;;
22525;SDS011;11429;50.842;4.386;2023-02-28T06:57:33;15.00;;;10.57;;
22525;SDS011;11429;50.842;4.386;2023-02-28T07:00:01;19.02;;;11.15;;
22525;SDS011;11429;50.842;4.386;2023-02-28T07:02:32;18.02;;;11.73;;
22525;SDS011;11429;50.842;4.386;2023-02-28T07:04:59;14.65;;;9.93;;
22525;SDS011;11429;50.842;4.386;2023-02-28T07:07:25;17.27;;;9.70;;
22525;SDS011;11429;50.842;4.386;2023-02-28T07:09:51;13.48;;;9.68;;
22525;SDS011;11429;50.842;4.386;2023-02-28T07:12:17;14.43;;;10.15;;
22525;SDS011;11429;50.842;4.386;2023-02-28T07:14:43;13.85;;;10.15;;
22525;SDS011;11429;50.842;4.386;2023-02-28T07:17:09;13.63;;;9.32;;
22525;SDS011;11429;50.842;4.386;2023-02-28T07:19:37;14.32;;;10.63;;
22525;SDS011;11429;50.842;4.386;2023-02-28T07:22:05;18.40;;;9.55;;
22525;SDS011;11429;50.842;4.386;2023-02-28T07:24:32;11.00;;;9.18;;
22525;SDS011;11429;50.842;4.386;2023-02-28T07:26:57;18.23;;;8.60;;
22525;SDS011;11429;50.842;4.386;2023-02-28T07:29:24;13.07;;;9.05;;
22525;SDS011;11429;50.842;4.386;2023-02-28T07:31:50;15.20;;;9.23;;
22525;SDS011;11429;50.842;4.386;2023-02-28T07:34:18;13.25;;;8.60;;
22525;SDS011;11429;50.842;4.386;2023-02-28T07:36:44;13.75;;;8.75;;
22525;SDS011;11429;50.842;4.386;2023-02-28T07:39:10;12.88;;;8.48;;
22525;SDS011;11429;50.842;4.386;2023-02-28T07:41:36;13.63;;;8.10;;
22525;SDS011;11429;50.842;4.386;2023-02-28T07:44:08;12.90;;;7.93;;
22525;SDS011;11429;50.842;4.386;2023-02-28T07:46:35;18.13;;;8.65;;
22525;SDS011;11429;50.842;4.386;2023-02-28T07:49:01;12.35;;;8.02;;
22525;SDS011;11429;50.842;4.386;2023-02-28T07:51:28;11.93;;;7.68;;
22525;SDS011;11429;50.842;4.386;2023-02-28T07:53:54;15.50;;;7.82;;
22525;SDS011;11429;50.842;4.386;2023-02-28T07:56:21;10.02;;;7.18;;
22525;SDS011;11429;50.842;4.386;2023-02-28T07:58:46;11.18;;;6.97;;
22525;SDS011;11429;50.842;4.386;2023-02-28T08:01:12;12.30;;;7.20;;
22525;SDS011;11429;50.842;4.386;2023-02-28T08:03:38;8.95;;;6.78;;
22525;SDS011;11429;50.842;4.386;2023-02-28T08:06:05;8.38;;;6.32;;
22525;SDS011;11429;50.842;4.386;2023-02-28T08:08:32;9.25;;;6.20;;
22525;SDS011;11429;50.842;4.386;2023-02-28T08:10:59;9.40;;;6.68;;
22525;SDS011;11429;50.842;4.386;2023-02-28T08:13:26;9.52;;;5.82;;
22525;SDS011;11429;50.842;4.386;2023-02-28T08:15:53;8.63;;;5.95;;
22525;SDS011;11429;50.842;4.386;2023-02-28T08:18:19;9.70;;;5.80;;
22525;SDS011;11429;50.842;4.386;2023-02-28T08:20:46;11.43;;;6.07;;
22525;SDS011;11429;50.842;4.386;2023-02-28T08:23:12;6.88;;;5.78;;
22525;SDS011;11429;50.842;4.386;2023-02-28T08:25:37;6.88;;;5.03;;
22525;SDS011;11429;50.842;4.386;2023-02-28T08:28:03;7.05;;;4.88;;
22525;SDS011;11429;50.842;4.386;2023-02-28T08:30:29;10.57;;;5.28;;
22525;SDS011;11429;50.842;4.386;2023-02-28T08:32:54;8.18;;;5.60;;
22525;SDS011;11429;50.842;4.386;2023-02-28T08:35:21;8.57;;;5.40;;
22525;SDS011;11429;50.842;4.386;2023-02-28T08:37:47;10.95;;;4.43;;
22525;SDS011;11429;50.842;4.386;2023-02-28T08:40:13;9.18;;;4.70;;
22525;SDS011;11429;50.842;4.386;2023-02-28T08:42:43;6.80;;;4.97;;
22525;SDS011;11429;50.842;4.386;2023-02-28T08:45:10;8.50;;;5.00;;
22525;SDS011;11429;50.842;4.386;2023-02-28T08:47:36;7.32;;;4.95;;
22525;SDS011;11429;50.842;4.386;2023-02-28T08:50:03;6.93;;;4.28;;
22525;SDS011;11429;50.842;4.386;2023-02-28T08:52:29;9.35;;;4.78;;
22525;SDS011;11429;50.842;4.386;2023-02-28T08:54:55;5.43;;;4.40;;
22525;SDS011;11429;50.842;4.386;2023-02-28T08:57:21;5.97;;;4.63;;
22525;SDS011;11429;50.842;4.386;2023-02-28T08:59:47;6.10;;;4.32;;
22525;SDS011;11429;50.842;4.386;2023-02-28T09:02:13;9.15;;;4.55;;
22525;SDS011;11429;50.842;4.386;2023-02-28T09:04:40;5.90;;;4.47;;
22525;SDS011;11429;50.842;4.386;2023-02-28T09:07:06;7.45;;;4.82;;
22525;SDS011;11429;50.842;4.386;2023-02-28T09:09:32;8.65;;;4.90;;
22525;SDS011;11429;50.842;4.386;2023-02-28T09:11:58;8.73;;;4.50;;
22525;SDS011;11429;50.842;4.386;2023-02-28T09:14:24;7.20;;;3.97;;
22525;SDS011;11429;50.842;4.386;2023-02-28T09:16:49;7.22;;;4.45;;
22525;SDS011;11429;50.842;4.386;2023-02-28T09:19:15;7.30;;;4.50;;
22525;SDS011;11429;50.842;4.386;2023-02-28T09:21:41;4.45;;;3.55;;
22525;SDS011;11429;50.842;4.386;2023-02-28T09:24:07;7.50;;;3.85;;
22525;SDS011;11429;50.842;4.386;2023-02-28T09:26:33;7.90;;;3.55;;
22525;SDS011;11429;50.842;4.386;2023-02-28T09:28:59;5.15;;;4.07;;
22525;SDS011;11429;50.842;4.386;2023-02-28T09:31:26;7.65;;;3.65;;
22525;SDS011;11429;50.842;4.386;2023-02-28T09:33:54;7.47;;;3.58;;
22525;SDS011;11429;50.842;4.386;2023-02-28T09:36:22;6.00;;;3.50;;
22525;SDS011;11429;50.842;4.386;2023-02-28T09:38:49;5.70;;;3.40;;
22525;SDS011;11429;50.842;4.386;2023-02-28T09:41:23;7.03;;;3.60;;
22525;SDS011;11429;50.842;4.386;2023-02-28T09:43:54;4.80;;;3.53;;
22525;SDS011;11429;50.842;4.386;2023-02-28T09:49:14;6.40;;;3.63;;
22525;SDS011;11429;50.842;4.386;2023-02-28T09:52:09;7.72;;;3.80;;
22525;SDS011;11429;50.842;4.386;2023-02-28T09:57:29;3.80;;;2.70;;
22525;SDS011;11429;50.842;4.386;2023-02-28T10:05:33;6.25;;;2.63;;
22525;SDS011;11429;50.842;4.386;2023-02-28T10:08:08;4.40;;;2.70;;
22525;SDS011;11429;50.842;4.386;2023-02-28T10:10:44;5.22;;;2.63;;
22525;SDS011;11429;50.842;4.386;2023-02-28T10:16:06;4.95;;;2.60;;
22525;SDS011;11429;50.842;4.386;2023-02-28T10:18:43;3.45;;;2.50;;
22525;SDS011;11429;50.842;4.386;2023-02-28T10:21:15;4.90;;;2.47;;
22525;SDS011;11429;50.842;4.386;2023-02-28T10:26:16;3.75;;;2.63;;
22525;SDS011;11429;50.842;4.386;2023-02-28T10:28:43;5.60;;;2.35;;
22525;SDS011;11429;50.842;4.386;2023-02-28T10:31:14;3.35;;;2.40;;
22525;SDS011;11429;50.842;4.386;2023-02-28T10:33:43;4.72;;;1.92;;
22525;SDS011;11429;50.842;4.386;2023-02-28T10:36:11;7.32;;;2.47;;
22525;SDS011;11429;50.842;4.386;2023-02-28T10:38:44;3.97;;;2.13;;
22525;SDS011;11429;50.842;4.386;2023-02-28T10:41:14;3.70;;;1.90;;
22525;SDS011;11429;50.842;4.386;2023-02-28T10:43:51;3.03;;;2.03;;
22525;SDS011;11429;50.842;4.386;2023-02-28T10:46:18;3.63;;;2.00;;
22525;SDS011;11429;50.842;4.386;2023-02-28T10:48:59;2.83;;;2.00;;
22525;SDS011;11429;50.842;4.386;2023-02-28T10:51:34;2.28;;;1.90;;
22525;SDS011;11429;50.842;4.386;2023-02-28T10:54:02;4.07;;;2.25;;
22525;SDS011;11429;50.842;4.386;2023-02-28T10:56:29;3.88;;;1.77;;
22525;SDS011;11429;50.842;4.386;2023-02-28T11:01:37;2.80;;;2.10;;
22525;SDS011;11429;50.842;4.386;2023-02-28T11:06:43;3.85;;;1.90;;
22525;SDS011;11429;50.842;4.386;2023-02-28T11:09:22;4.32;;;2.03;;
22525;SDS011;11429;50.842;4.386;2023-02-28T11:11:49;2.80;;;2.15;;
22525;SDS011;11429;50.842;4.386;2023-02-28T11:14:26;3.85;;;2.65;;
22525;SDS011;11429;50.842;4.386;2023-02-28T11:16:55;3.70;;;2.25;;
22525;SDS011;11429;50.842;4.386;2023-02-28T11:19:26;3.60;;;2.30;;
22525;SDS011;11429;50.842;4.386;2023-02-28T11:22:00;2.78;;;2.00;;
22525;SDS011;11429;50.842;4.386;2023-02-28T11:26:56;3.38;;;1.95;;
22525;SDS011;11429;50.842;4.386;2023-02-28T11:29:23;5.78;;;2.13;;
22525;SDS011;11429;50.842;4.386;2023-02-28T11:35:35;4.38;;;2.50;;
22525;SDS011;11429;50.842;4.386;2023-02-28T11:37:35;5.75;;;3.40;;
22525;SDS011;11429;50.842;4.386;2023-02-28T11:40:01;3.13;;;2.25;;
22525;SDS011;11429;50.842;4.386;2023-02-28T11:42:43;2.85;;;2.10;;
22525;SDS011;11429;50.842;4.386;2023-02-28T11:45:14;2.92;;;2.20;;
22525;SDS011;11429;50.842;4.386;2023-02-28T11:48:01;3.28;;;2.35;;
22525;SDS011;11429;50.842;4.386;2023-02-28T11:53:01;4.72;;;2.70;;
22525;SDS011;11429;50.842;4.386;2023-02-28T11:55:36;5.25;;;2.70;;
22525;SDS011;11429;50.842;4.386;2023-02-28T12:09:31;3.47;;;2.60;;
22525;SDS011;11429;50.842;4.386;2023-02-28T12:14:53;4.20;;;2.70;;
22525;SDS011;11429;50.842;4.386;2023-02-28T12:28:10;3.38;;;2.20;;
22525;SDS011;11429;50.842;4.386;2023-02-28T12:30:40;3.60;;;2.33;;
22525;SDS011;11429;50.842;4.386;2023-02-28T12:33:14;3.05;;;2.38;;
22525;SDS011;11429;50.842;4.386;2023-02-28T12:35:57;4.45;;;2.63;;
22525;SDS011;11429;50.842;4.386;2023-02-28T12:38:28;4.05;;;2.30;;
22525;SDS011;11429;50.842;4.386;2023-02-28T12:41:13;5.95;;;2.78;;
22525;SDS011;11429;50.842;4.386;2023-02-28T12:44:06;4.55;;;2.60;;
22525;SDS011;11429;50.842;4.386;2023-02-28T12:46:43;4.10;;;2.00;;
22525;SDS011;11429;50.842;4.386;2023-02-28T12:52:06;3.47;;;2.72;;
22525;SDS011;11429;50.842;4.386;2023-02-28T12:59:49;3.33;;;2.50;;
22525;SDS011;11429;50.842;4.386;2023-02-28T13:08:32;7.97;;;2.25;;
22525;SDS011;11429;50.842;4.386;2023-02-28T13:10:55;3.58;;;2.60;;
22525;SDS011;11429;50.842;4.386;2023-02-28T13:13:25;3.47;;;2.20;;
22525;SDS011;11429;50.842;4.386;2023-02-28T13:20:57;2.55;;;2.15;;
22525;SDS011;11429;50.842;4.386;2023-02-28T13:23:59;3.72;;;2.33;;
22525;SDS011;11429;50.842;4.386;2023-02-28T13:26:20;2.90;;;2.17;;
22525;SDS011;11429;50.842;4.386;2023-02-28T13:29:04;5.82;;;2.65;;
22525;SDS011;11429;50.842;4.386;2023-02-28T13:34:31;3.97;;;2.63;;
22525;SDS011;11429;50.842;4.386;2023-02-28T13:42:53;4.97;;;2.70;;
22525;SDS011;11429;50.842;4.386;2023-02-28T13:53:16;4.28;;;2.40;;
22525;SDS011;11429;50.842;4.386;2023-02-28T13:58:40;4.00;;;2.78;;
22525;SDS011;11429;50.842;4.386;2023-02-28T14:06:38;4.25;;;2.47;;
22525;SDS011;11429;50.842;4.386;2023-02-28T14:09:28;4.10;;;2.28;;
22525;SDS011;11429;50.842;4.386;2023-02-28T14:12:49;3.08;;;2.45;;
22525;SDS011;11429;50.842;4.386;2023-02-28T14:15:02;5.80;;;2.63;;
22525;SDS011;11429;50.842;4.386;2023-02-28T14:17:30;3.30;;;2.40;;
22525;SDS011;11429;50.842;4.386;2023-02-28T14:19:57;4.80;;;2.60;;
22525;SDS011;11429;50.842;4.386;2023-02-28T14:31:35;5.63;;;2.72;;
22525;SDS011;11429;50.842;4.386;2023-02-28T14:37:10;3.58;;;2.60;;
22525;SDS011;11429;50.842;4.386;2023-02-28T14:39:41;3.17;;;2.30;;
22525;SDS011;11429;50.842;4.386;2023-02-28T14:45:20;4.60;;;2.53;;
22525;SDS011;11429;50.842;4.386;2023-02-28T14:47:47;3.83;;;2.72;;
22525;SDS011;11429;50.842;4.386;2023-02-28T14:50:20;3.92;;;2.90;;
22525;SDS011;11429;50.842;4.386;2023-02-28T14:52:54;3.97;;;2.80;;
22525;SDS011;11429;50.842;4.386;2023-02-28T14:55:28;4.03;;;2.78;;
22525;SDS011;11429;50.842;4.386;2023-02-28T14:58:05;4.90;;;2.70;;
22525;SDS011;11429;50.842;4.386;2023-02-28T15:00:33;4.72;;;2.97;;
22525;SDS011;11429;50.842;4.386;2023-02-28T15:03:01;4.72;;;3.10;;
22525;SDS011;11429;50.842;4.386;2023-02-28T15:05:42;3.88;;;2.90;;
22525;SDS011;11429;50.842;4.386;2023-02-28T15:10:45;4.43;;;2.67;;
22525;SDS011;11429;50.842;4.386;2023-02-28T15:16:13;6.13;;;3.10;;
22525;SDS011;11429;50.842;4.386;2023-02-28T15:18:57;5.03;;;2.80;;
22525;SDS011;11429;50.842;4.386;2023-02-28T15:21:30;7.15;;;3.15;;
22525;SDS011;11429;50.842;4.386;2023-02-28T15:24:04;4.40;;;2.90;;
22525;SDS011;11429;50.842;4.386;2023-02-28T15:26:39;5.55;;;3.63;;
22525;SDS011;11429;50.842;4.386;2023-02-28T15:29:12;5.05;;;3.08;;
22525;SDS011;11429;50.842;4.386;2023-02-28T15:31:46;8.32;;;3.13;;
22525;SDS011;11429;50.842;4.386;2023-02-28T15:34:34;5.85;;;3.25;;
22525;SDS011;11429;50.842;4.386;2023-02-28T15:37:00;5.55;;;3.33;;
22525;SDS011;11429;50.842;4.386;2023-02-28T15:39:27;5.03;;;3.80;;
22525;SDS011;11429;50.842;4.386;2023-02-28T15:42:10;6.80;;;3.03;;
22525;SDS011;11429;50.842;4.386;2023-02-28T15:44:37;4.40;;;3.03;;
22525;SDS011;11429;50.842;4.386;2023-02-28T15:47:24;8.95;;;3.47;;
22525;SDS011;11429;50.842;4.386;2023-02-28T15:49:54;4.05;;;2.90;;
22525;SDS011;11429;50.842;4.386;2023-02-28T15:57:34;3.88;;;2.90;;
22525;SDS011;11429;50.842;4.386;2023-02-28T16:00:00;9.27;;;3.53;;
22525;SDS011;11429;50.842;4.386;2023-02-28T16:02:35;5.03;;;3.20;;
22525;SDS011;11429;50.842;4.386;2023-02-28T16:07:35;5.45;;;3.03;;
22525;SDS011;11429;50.842;4.386;2023-02-28T16:13:28;4.18;;;3.30;;
22525;SDS011;11429;50.842;4.386;2023-02-28T16:15:53;4.53;;;3.30;;
22525;SDS011;11429;50.842;4.386;2023-02-28T16:18:19;5.30;;;2.90;;
22525;SDS011;11429;50.842;4.386;2023-02-28T16:20:45;4.50;;;3.03;;
22525;SDS011;11429;50.842;4.386;2023-02-28T16:23:10;6.28;;;3.10;;
22525;SDS011;11429;50.842;4.386;2023-02-28T16:25:37;6.35;;;3.00;;
22525;SDS011;11429;50.842;4.386;2023-02-28T16:28:08;6.05;;;3.30;;
22525;SDS011;11429;50.842;4.386;2023-02-28T16:30:42;3.78;;;2.92;;
22525;SDS011;11429;50.842;4.386;2023-02-28T16:33:08;5.93;;;3.55;;
22525;SDS011;11429;50.842;4.386;2023-02-28T16:35:34;4.70;;;2.80;;
22525;SDS011;11429;50.842;4.386;2023-02-28T16:38:00;5.05;;;2.90;;
22525;SDS011;11429;50.842;4.386;2023-02-28T16:40:26;6.82;;;3.28;;
22525;SDS011;11429;50.842;4.386;2023-02-28T16:42:54;4.78;;;2.50;;
22525;SDS011;11429;50.842;4.386;2023-02-28T16:45:24;5.63;;;2.90;;
22525;SDS011;11429;50.842;4.386;2023-02-28T16:47:52;5.03;;;3.45;;
22525;SDS011;11429;50.842;4.386;2023-02-28T16:50:19;5.72;;;3.20;;
22525;SDS011;11429;50.842;4.386;2023-02-28T16:52:47;7.90;;;3.03;;
22525;SDS011;11429;50.842;4.386;2023-02-28T16:55:14;6.10;;;3.55;;
22525;SDS011;11429;50.842;4.386;2023-02-28T16:57:41;4.85;;;3.17;;
22525;SDS011;11429;50.842;4.386;2023-02-28T17:00:11;6.53;;;2.92;;
22525;SDS011;11429;50.842;4.386;2023-02-28T17:02:38;6.13;;;2.97;;
22525;SDS011;11429;50.842;4.386;2023-02-28T17:05:04;4.82;;;2.88;;
22525;SDS011;11429;50.842;4.386;2023-02-28T17:07:31;4.53;;;2.85;;
22525;SDS011;11429;50.842;4.386;2023-02-28T17:09:57;4.80;;;2.58;;
22525;SDS011;11429;50.842;4.386;2023-02-28T17:12:23;6.10;;;2.88;;
22525;SDS011;11429;50.842;4.386;2023-02-28T17:14:48;3.67;;;2.70;;
22525;SDS011;11429;50.842;4.386;2023-02-28T17:17:18;5.78;;;2.88;;
22525;SDS011;11429;50.842;4.386;2023-02-28T17:19:46;3.90;;;2.95;;
22525;SDS011;11429;50.842;4.386;2023-02-28T17:22:12;3.33;;;2.60;;
22525;SDS011;11429;50.842;4.386;2023-02-28T17:24:38;5.20;;;2.92;;
22525;SDS011;11429;50.842;4.386;2023-02-28T17:27:04;5.50;;;2.80;;
22525;SDS011;11429;50.842;4.386;2023-02-28T17:29:31;4.47;;;2.92;;
22525;SDS011;11429;50.842;4.386;2023-02-28T17:31:56;5.45;;;3.20;;
22525;SDS011;11429;50.842;4.386;2023-02-28T17:34:22;9.60;;;2.95;;
22525;SDS011;11429;50.842;4.386;2023-02-28T17:36:48;7.18;;;3.00;;